Time;durP1;ratioP1;P1;durP2;ratioP2;P2;SDS_P1;SDS_P2;PMS_P1;PMS_P2;Temp;Humidity;BMP_temperature;BMP_pressure;BME280_temperature;BME280_humidity;BME280_pressure;Samples;Min_cycle;Max_cycle;Signal;HPM_P1;HPM_P2
2022/03/21 00:00:28;;;;;;;17.05;12.88;;;;;;;8.50;71.77;102266.66;4969915;28;20431;-69
2022/03/21 00:02:55;;;;;;;21.70;13.63;;;;;;;8.55;71.29;102257.53;4959677;28;20038;-70
2022/03/21 00:05:20;;;;;;;16.13;13.05;;;;;;;8.65;72.65;102280.78;4971305;28;20410;-71
2022/03/21 00:07:46;;;;;;;17.10;13.70;;;;;;;8.44;72.11;102286.28;4952407;28;20014;-72
2022/03/21 00:10:11;;;;;;;14.32;12.65;;;;;;;8.47;72.24;102280.84;4949056;28;20022;-70
2022/03/21 00:12:39;;;;;;;16.00;12.95;;;;;;;8.42;72.34;102274.97;4973711;28;20022;-69
2022/03/21 00:15:07;;;;;;;17.30;12.93;;;;;;;8.47;72.90;102269.47;4937854;28;20871;-71
2022/03/21 00:17:34;;;;;;;16.33;12.60;;;;;;;8.39;73.55;102264.56;4955575;28;20002;-70
2022/03/21 00:19:59;;;;;;;15.88;12.27;;;;;;;8.37;73.22;102269.09;4972875;28;21015;-70
2022/03/21 00:22:24;;;;;;;14.07;11.48;;;;;;;8.41;73.45;102262.72;4989638;28;20090;-72
2022/03/21 00:24:50;;;;;;;16.58;11.35;;;;;;;8.39;74.17;102273.34;4963910;28;20033;-71
2022/03/21 00:27:15;;;;;;;14.02;11.07;;;;;;;8.39;73.64;102281.25;4962641;28;20018;-72
2022/03/21 00:29:41;;;;;;;17.33;11.73;;;;;;;8.30;73.73;102275.63;4971305;28;20006;-70
2022/03/21 00:32:06;;;;;;;13.77;12.02;;;;;;;8.23;74.24;102286.53;4935575;28;20922;-71
2022/03/21 00:34:32;;;;;;;14.10;12.05;;;;;;;8.25;73.28;102273.25;4957371;28;20645;-71
2022/03/21 00:36:57;;;;;;;16.58;12.32;;;;;;;8.28;74.62;102265.19;4962335;28;20271;-71
2022/03/21 00:39:23;;;;;;;17.90;11.68;;;;;;;8.28;74.70;102262.53;4947482;28;20033;-70
2022/03/21 00:41:48;;;;;;;18.00;11.88;;;;;;;8.14;75.33;102262.44;4954593;28;20026;-71
2022/03/21 00:44:14;;;;;;;13.40;11.10;;;;;;;8.10;76.17;102247.72;4972348;28;20034;-70
2022/03/21 00:46:39;;;;;;;18.30;11.13;;;;;;;8.17;77.02;102246.47;4940054;28;20818;-71
2022/03/21 00:49:08;;;;;;;15.32;10.82;;;;;;;8.11;77.08;102247.66;4972357;28;20082;-71
2022/03/21 00:51:33;;;;;;;17.00;12.43;;;;;;;8.03;75.66;102253.31;4973753;28;20022;-70
2022/03/21 00:53:58;;;;;;;19.70;13.07;;;;;;;8.04;75.61;102244.47;4954986;28;20090;-71
2022/03/21 00:56:24;;;;;;;16.30;12.77;;;;;;;8.00;76.62;102261.41;4945750;28;20024;-70
2022/03/21 00:58:49;;;;;;;18.10;13.10;;;;;;;8.18;76.52;102269.22;4955509;28;20199;-70
2022/03/21 01:01:15;;;;;;;17.73;13.25;;;;;;;8.16;74.65;102274.59;4937948;28;20077;-70
2022/03/21 01:03:40;;;;;;;17.65;13.48;;;;;;;8.17;74.66;102271.03;4956413;28;20044;-69
2022/03/21 01:06:05;;;;;;;20.77;12.90;;;;;;;8.30;74.39;102276.47;4972107;28;20013;-70
2022/03/21 01:08:31;;;;;;;17.60;12.98;;;;;;;8.37;76.01;102271.72;4969732;28;21020;-70
2022/03/21 01:10:56;;;;;;;14.90;12.57;;;;;;;8.45;75.82;102271.31;4936361;28;20205;-71
2022/03/21 01:13:21;;;;;;;17.65;12.73;;;;;;;8.37;75.80;102282.28;4955172;28;20014;-71
2022/03/21 01:15:47;;;;;;;18.75;13.35;;;;;;;8.29;74.15;102280.06;4974532;28;20058;-71
2022/03/21 01:18:12;;;;;;;19.58;13.63;;;;;;;8.39;72.41;102290.94;4969971;28;20405;-71
2022/03/21 01:20:38;;;;;;;19.35;13.82;;;;;;;8.39;72.24;102290.94;4973129;28;20370;-70
2022/03/21 01:23:03;;;;;;;19.13;14.10;;;;;;;8.40;74.07;102282.09;4958089;28;20493;-71
2022/03/21 01:25:28;;;;;;;20.35;13.65;;;;;;;8.39;73.57;102288.31;4938867;28;20026;-71
2022/03/21 01:27:54;;;;;;;17.98;13.40;;;;;;;8.36;74.25;102280.56;4946055;28;20132;-70
2022/03/21 01:30:19;;;;;;;18.15;13.45;;;;;;;8.39;74.54;102281.25;4952909;28;20033;-70
2022/03/21 01:32:45;;;;;;;17.88;13.13;;;;;;;8.32;74.94;102273.75;4954415;28;20831;-70
2022/03/21 01:35:11;;;;;;;16.15;13.05;;;;;;;8.25;75.95;102279.38;4954339;28;20132;-71
2022/03/21 01:37:37;;;;;;;15.63;12.48;;;;;;;8.20;76.59;102284.03;4955301;28;20018;-71
2022/03/21 01:40:03;;;;;;;14.45;12.70;;;;;;;8.25;76.18;102278.53;4969784;28;20025;-70
2022/03/21 01:42:28;;;;;;;16.27;12.82;;;;;;;8.35;77.46;102279.72;4971677;28;20021;-69
2022/03/21 01:44:55;;;;;;;16.73;13.25;;;;;;;8.30;77.85;102273.00;4956164;28;20038;-70
2022/03/21 01:47:20;;;;;;;13.90;12.27;;;;;;;8.16;77.65;102271.13;4951389;28;20018;-70
2022/03/21 01:49:46;;;;;;;17.40;12.90;;;;;;;8.14;77.16;102276.47;4973698;28;20033;-71
2022/03/21 01:52:11;;;;;;;14.73;13.13;;;;;;;8.12;77.19;102274.84;4974337;28;20014;-70
2022/03/21 01:57:21;;;;;;;14.75;12.18;;;;;;;8.03;75.93;102274.41;4985706;28;20170;-70
2022/03/21 01:59:46;;;;;;;14.80;12.20;;;;;;;8.03;76.17;102268.28;4956912;28;20804;-70
2022/03/21 02:02:11;;;;;;;13.55;11.65;;;;;;;7.93;77.03;102262.66;4956782;28;20029;-71
2022/03/21 02:04:37;;;;;;;17.23;12.32;;;;;;;7.93;77.46;102272.38;4958226;28;20044;-71
2022/03/21 02:07:02;;;;;;;17.60;13.23;;;;;;;7.99;77.71;102269.38;4957052;28;20359;-70
2022/03/21 02:09:29;;;;;;;20.00;12.52;;;;;;;7.89;77.38;102283.03;4975804;28;20028;-70
2022/03/21 02:11:55;;;;;;;16.75;12.40;;;;;;;7.90;77.57;102268.09;4948761;28;20022;-71
2022/03/21 02:14:20;;;;;;;17.50;12.15;;;;;;;7.91;77.72;102269.81;4939755;28;20121;-71
2022/03/21 02:16:45;;;;;;;13.40;12.00;;;;;;;8.00;77.52;102268.47;4973482;28;20010;-71
2022/03/21 02:19:30;;;;;;;17.10;12.07;;;;;;;7.91;76.61;102270.66;4993212;28;20013;-70
2022/03/21 02:22:19;;;;;;;16.92;12.13;;;;;;;7.84;77.06;102268.41;4975075;28;20034;-70
2022/03/21 02:24:52;;;;;;;14.02;11.70;;;;;;;7.88;77.00;102265.56;4973128;28;20145;-70
2022/03/21 02:27:17;;;;;;;18.67;11.73;;;;;;;7.84;77.25;102264.00;4962508;28;20509;-71
2022/03/21 02:29:43;;;;;;;16.02;11.75;;;;;;;7.79;77.75;102265.19;4973923;28;20090;-70
2022/03/21 02:32:09;;;;;;;13.35;11.40;;;;;;;7.76;77.72;102266.19;4973443;28;20471;-70
2022/03/21 02:34:37;;;;;;;16.45;11.38;;;;;;;7.74;77.74;102268.03;4986975;28;20832;-70
2022/03/21 02:37:02;;;;;;;15.30;11.55;;;;;;;7.63;77.93;102262.47;4959117;28;20020;-70
2022/03/21 02:39:28;;;;;;;15.73;11.40;;;;;;;7.50;78.38;102260.50;4956635;28;20224;-70
2022/03/21 02:41:53;;;;;;;13.82;11.32;;;;;;;7.48;78.45;102259.72;4957972;28;20119;-70
2022/03/21 02:44:18;;;;;;;12.95;11.07;;;;;;;7.45;77.93;102259.03;4956843;28;20927;-71
2022/03/21 02:46:45;;;;;;;14.85;11.10;;;;;;;7.34;78.25;102262.22;4946132;28;20030;-71
2022/03/21 02:49:10;;;;;;;12.63;11.18;;;;;;;7.27;77.92;102263.47;4973036;28;20026;-70
2022/03/21 02:51:37;;;;;;;17.40;11.30;;;;;;;7.10;78.56;102273.06;4990641;28;20479;-70
2022/03/21 02:54:03;;;;;;;13.63;10.85;;;;;;;6.99;78.89;102263.03;4952264;28;20072;-70
2022/03/21 02:56:28;;;;;;;14.05;11.30;;;;;;;6.96;79.48;102265.84;4971432;28;20026;-70
2022/03/21 02:58:53;;;;;;;14.55;11.63;;;;;;;6.96;78.90;102267.63;4991239;28;20446;-71
2022/03/21 03:01:19;;;;;;;15.52;11.88;;;;;;;6.80;79.11;102257.84;4956270;28;20246;-70
2022/03/21 03:03:44;;;;;;;14.40;11.85;;;;;;;6.79;79.23;102269.28;4961720;28;20289;-71
2022/03/21 03:06:10;;;;;;;13.98;10.65;;;;;;;6.72;79.79;102256.53;4949785;28;20903;-70
2022/03/21 03:08:36;;;;;;;14.45;11.20;;;;;;;6.65;79.94;102266.47;4932213;28;21059;-70
2022/03/21 03:11:01;;;;;;;16.58;12.05;;;;;;;6.60;80.05;102268.47;4932879;28;20065;-70
2022/03/21 03:13:27;;;;;;;17.17;12.00;;;;;;;6.55;80.07;102249.44;4918241;28;20130;-70
2022/03/21 03:15:52;;;;;;;20.60;11.80;;;;;;;6.49;79.76;102255.84;4912580;28;20003;-71
2022/03/21 03:18:18;;;;;;;16.38;11.48;;;;;;;6.55;79.61;102259.97;4928515;28;20121;-70
2022/03/21 03:20:51;;;;;;;15.55;11.35;;;;;;;6.52;80.05;102261.78;4924807;28;20037;-70
2022/03/21 03:23:20;;;;;;;12.53;11.30;;;;;;;6.51;79.84;102265.38;4916356;28;20062;-73
2022/03/21 03:25:46;;;;;;;13.30;11.40;;;;;;;6.50;79.93;102265.41;4912196;28;20019;-71
2022/03/21 03:28:13;;;;;;;17.10;11.70;;;;;;;6.45;79.98;102257.75;4931385;28;20030;-70
2022/03/21 03:30:38;;;;;;;19.20;12.63;;;;;;;6.53;79.69;102260.88;4931623;28;20014;-70
2022/03/21 03:33:03;;;;;;;14.65;12.15;;;;;;;6.50;79.27;102258.41;4915682;28;20003;-70
2022/03/21 03:35:29;;;;;;;13.73;11.98;;;;;;;6.52;78.98;102253.06;4934231;28;20410;-71
2022/03/21 03:37:54;;;;;;;14.80;12.13;;;;;;;6.50;79.42;102257.53;4933841;28;20015;-70
2022/03/21 03:40:21;;;;;;;15.75;11.73;;;;;;;6.60;80.11;102265.84;4950756;28;20022;-69
2022/03/21 03:42:46;;;;;;;18.60;12.30;;;;;;;6.61;79.64;102272.81;4947527;28;20353;-71
2022/03/21 03:45:13;;;;;;;17.02;12.13;;;;;;;6.58;79.71;102272.97;4947313;28;20446;-73
2022/03/21 03:47:39;;;;;;;15.48;12.93;;;;;;;6.61;79.89;102275.44;4933679;28;20037;-72
2022/03/21 03:50:05;;;;;;;20.77;12.20;;;;;;;6.76;79.24;102273.88;4950814;28;20011;-72
2022/03/21 03:52:30;;;;;;;15.05;12.60;;;;;;;6.91;79.03;102273.13;4946432;28;20007;-72
2022/03/21 03:54:55;;;;;;;15.23;12.07;;;;;;;7.02;78.66;102278.72;4946618;28;20391;-71
2022/03/21 03:57:21;;;;;;;14.85;12.45;;;;;;;6.91;79.20;102275.75;4950308;28;20023;-70
2022/03/21 03:59:46;;;;;;;15.18;12.25;;;;;;;6.78;79.64;102280.75;4947941;28;20521;-69
2022/03/21 04:02:11;;;;;;;16.80;12.18;;;;;;;6.67;80.20;102280.41;4951731;28;20817;-72
2022/03/21 04:04:37;;;;;;;17.85;12.68;;;;;;;6.65;79.91;102279.63;4980339;28;20497;-71
2022/03/21 04:07:02;;;;;;;19.13;13.18;;;;;;;6.78;79.56;102283.41;4965685;28;20006;-72
2022/03/21 04:09:28;;;;;;;14.30;12.18;;;;;;;6.69;79.45;102289.09;4968975;28;20040;-71
2022/03/21 04:11:53;;;;;;;17.63;13.00;;;;;;;6.70;79.22;102289.00;4987841;28;20014;-71
2022/03/21 04:14:18;;;;;;;15.30;12.48;;;;;;;6.64;79.41;102288.44;4970714;28;20002;-72
2022/03/21 04:16:44;;;;;;;18.35;12.65;;;;;;;6.67;79.78;102291.78;4955501;28;20005;-70
2022/03/21 04:19:11;;;;;;;18.02;13.25;;;;;;;6.87;79.21;102292.63;4970827;28;20564;-71
2022/03/21 04:21:37;;;;;;;16.45;12.82;;;;;;;6.79;79.08;102294.75;4952543;28;20068;-71
2022/03/21 04:24:02;;;;;;;16.55;11.82;;;;;;;6.82;78.57;102290.19;4956812;28;20246;-71
2022/03/21 04:26:27;;;;;;;15.57;12.00;;;;;;;6.76;78.85;102289.66;4964386;28;20016;-72
2022/03/21 04:28:55;;;;;;;14.40;12.75;;;;;;;6.61;79.08;102288.59;4989021;28;20022;-71
2022/03/21 04:31:20;;;;;;;14.75;11.88;;;;;;;6.67;78.90;102296.19;4987624;28;20033;-72
2022/03/21 04:33:45;;;;;;;17.70;12.18;;;;;;;6.63;78.25;102297.28;5027692;28;20431;-72
2022/03/21 04:36:11;;;;;;;17.73;12.38;;;;;;;6.62;78.39;102300.81;5007524;28;20051;-71
2022/03/21 04:38:37;;;;;;;15.20;11.65;;;;;;;6.48;78.63;102299.69;4970430;28;20064;-71
2022/03/21 04:41:02;;;;;;;16.70;11.43;;;;;;;6.44;78.48;102308.63;4953326;28;20052;-71
2022/03/21 04:43:27;;;;;;;14.98;11.90;;;;;;;6.40;78.32;102312.31;4961687;28;20091;-71
2022/03/21 04:45:53;;;;;;;15.65;11.95;;;;;;;6.30;78.30;102309.31;4954775;28;20045;-71
2022/03/21 04:48:18;;;;;;;13.20;11.73;;;;;;;6.23;78.44;102313.09;4957114;28;20378;-71
2022/03/21 04:50:44;;;;;;;14.55;12.50;;;;;;;6.13;78.99;102309.19;4957056;28;20017;-72
2022/03/21 04:53:10;;;;;;;17.75;11.77;;;;;;;6.03;78.93;102314.00;4972260;28;20002;-72
2022/03/21 04:55:37;;;;;;;16.35;12.40;;;;;;;5.97;78.62;102315.13;4950515;28;20030;-71
2022/03/21 04:58:02;;;;;;;15.20;12.18;;;;;;;5.93;78.57;102310.91;4972384;28;20870;-71
2022/03/21 05:00:28;;;;;;;14.50;12.30;;;;;;;5.78;79.09;102312.44;4970417;28;20021;-72
2022/03/21 05:02:53;;;;;;;15.52;12.38;;;;;;;5.70;79.57;102325.06;4939744;28;20006;-72
2022/03/21 05:05:18;;;;;;;15.48;12.77;;;;;;;5.70;79.53;102322.44;4940185;28;20044;-72
2022/03/21 05:07:52;;;;;;;17.65;12.80;;;;;;;5.75;79.10;102320.44;4975153;28;20014;-71
2022/03/21 05:10:18;;;;;;;16.52;12.30;;;;;;;5.65;79.01;102337.50;4959854;28;20283;-71
2022/03/21 05:12:43;;;;;;;16.77;12.13;;;;;;;5.62;79.26;102330.63;4956145;28;20090;-71
2022/03/21 05:15:09;;;;;;;16.33;12.88;;;;;;;5.46;79.98;102327.78;4940532;28;20010;-71
2022/03/21 05:17:34;;;;;;;14.70;12.02;;;;;;;5.44;80.27;102328.78;4941765;28;20179;-71
2022/03/21 05:20:00;;;;;;;14.65;12.38;;;;;;;5.36;79.69;102320.34;4974114;28;20028;-71
2022/03/21 05:22:26;;;;;;;18.35;13.27;;;;;;;5.33;79.89;102326.63;4959573;28;20101;-72
2022/03/21 05:30:57;;;;;;;16.00;13.10;;;;;;;5.36;79.78;102326.47;4893568;28;20249;-72
2022/03/21 05:36:08;;;;;;;15.98;13.40;;;;;;;5.15;79.57;102328.22;4946574;28;20075;-71
2022/03/21 05:38:33;;;;;;;18.58;13.38;;;;;;;5.09;80.19;102331.94;4960861;28;20032;-72
2022/03/21 05:41:03;;;;;;;15.32;13.10;;;;;;;5.03;80.10;102333.94;4956699;28;20006;-72
2022/03/21 05:43:29;;;;;;;17.88;13.30;;;;;;;5.06;80.37;102337.31;4942639;28;20018;-72
2022/03/21 05:45:55;;;;;;;15.10;12.68;;;;;;;5.06;80.25;102333.81;4973888;28;20125;-73
2022/03/21 05:51:04;;;;;;;15.48;13.18;;;;;;;5.00;80.19;102340.16;4963160;28;20016;-73
2022/03/21 05:53:30;;;;;;;17.52;14.00;;;;;;;5.02;80.06;102350.59;4964125;28;20270;-73
2022/03/21 05:55:56;;;;;;;18.02;14.10;;;;;;;5.18;79.57;102350.88;4961876;28;20564;-72
2022/03/21 05:58:22;;;;;;;13.88;12.30;;;;;;;5.32;78.85;102351.16;4964488;28;20133;-71
2022/03/21 06:00:47;;;;;;;15.95;13.32;;;;;;;5.31;78.29;102355.53;4960606;28;20082;-70
2022/03/21 06:03:12;;;;;;;18.08;12.90;;;;;;;5.06;79.20;102354.81;4978760;28;20056;-72
2022/03/21 06:05:38;;;;;;;16.15;12.27;;;;;;;5.04;79.78;102357.50;4978705;28;20018;-70
2022/03/21 06:08:03;;;;;;;19.27;12.98;;;;;;;5.00;79.91;102361.16;4975353;28;20100;-71
2022/03/21 06:10:29;;;;;;;15.32;12.40;;;;;;;5.00;80.10;102363.78;4978136;28;20021;-71
2022/03/21 06:12:55;;;;;;;18.33;13.23;;;;;;;4.95;79.93;102360.47;4994664;28;20021;-71
2022/03/21 06:15:20;;;;;;;17.65;12.88;;;;;;;4.96;80.19;102370.06;4978831;28;20006;-72
2022/03/21 06:17:46;;;;;;;17.05;13.52;;;;;;;4.95;80.00;102374.47;4960890;28;20086;-71
2022/03/21 06:20:13;;;;;;;19.05;13.07;;;;;;;4.98;80.29;102368.25;4976997;28;20048;-72
2022/03/21 06:22:38;;;;;;;18.27;13.80;;;;;;;5.04;79.93;102375.88;4963316;28;20418;-72
2022/03/21 06:25:04;;;;;;;16.05;12.85;;;;;;;5.10;79.84;102378.25;4961241;28;20038;-72
2022/03/21 06:27:29;;;;;;;17.20;13.52;;;;;;;5.14;79.46;102376.34;4972234;28;20005;-72
2022/03/21 06:29:55;;;;;;;16.15;13.70;;;;;;;5.14;79.04;102385.06;4963319;28;20930;-70
2022/03/21 06:32:20;;;;;;;16.20;13.52;;;;;;;5.26;78.96;102388.13;4977447;28;20082;-71
2022/03/21 06:34:45;;;;;;;16.42;14.10;;;;;;;5.33;78.68;102390.47;4964232;28;20733;-71
2022/03/21 06:37:11;;;;;;;15.55;13.70;;;;;;;5.59;78.18;102395.56;4977349;28;20332;-72
2022/03/21 06:39:36;;;;;;;16.50;13.88;;;;;;;5.63;77.68;102395.38;4981206;28;20110;-71
2022/03/21 06:42:02;;;;;;;18.17;14.50;;;;;;;5.71;77.39;102402.94;4969078;28;20420;-71
2022/03/21 06:44:27;;;;;;;16.42;14.02;;;;;;;5.87;76.64;102399.66;4976694;28;21046;-71
2022/03/21 06:46:53;;;;;;;16.42;14.38;;;;;;;5.96;75.82;102405.34;4978674;28;20016;-70
2022/03/21 06:49:20;;;;;;;16.98;15.10;;;;;;;6.06;76.47;102397.97;4983601;28;20353;-71
2022/03/21 06:51:45;;;;;;;15.80;14.15;;;;;;;6.22;75.80;102403.44;4980060;28;20191;-71
2022/03/21 06:54:11;;;;;;;16.90;14.50;;;;;;;6.32;75.42;102407.34;4963001;28;20155;-70
2022/03/21 06:56:36;;;;;;;18.92;15.70;;;;;;;6.50;74.71;102407.44;4973442;28;20020;-71
2022/03/21 06:59:02;;;;;;;18.30;15.25;;;;;;;6.53;74.92;102400.28;4968561;28;20581;-71
2022/03/21 07:01:27;;;;;;;18.67;14.57;;;;;;;6.71;74.07;102408.22;4973721;28;20036;-71
2022/03/21 07:03:53;;;;;;;17.05;15.25;;;;;;;6.80;72.29;102409.63;4965189;28;20871;-71
2022/03/21 07:06:19;;;;;;;16.73;14.93;;;;;;;6.94;69.56;102407.19;4962838;28;20049;-71
2022/03/21 07:08:51;;;;;;;16.88;14.85;;;;;;;7.09;66.84;102417.91;4981800;28;20041;-71
2022/03/21 07:11:18;;;;;;;21.27;14.05;;;;;;;7.19;64.29;102414.78;4948488;28;20117;-70
2022/03/21 07:13:43;;;;;;;17.77;13.70;;;;;;;7.46;64.12;102427.53;4983445;28;20064;-71
2022/03/21 07:16:10;;;;;;;17.33;13.75;;;;;;;7.63;63.77;102421.44;4967820;28;20514;-71
2022/03/21 07:18:35;;;;;;;16.55;14.85;;;;;;;7.72;60.41;102422.75;4999801;28;20022;-71
2022/03/21 07:21:00;;;;;;;16.85;13.35;;;;;;;7.84;59.13;102430.06;4983635;28;20030;-73
2022/03/21 07:23:26;;;;;;;15.70;12.85;;;;;;;7.92;59.70;102427.00;4953482;28;20010;-71
2022/03/21 07:25:51;;;;;;;16.48;13.85;;;;;;;8.04;58.87;102429.03;4967139;28;20030;-72
2022/03/21 07:28:16;;;;;;;18.55;13.55;;;;;;;8.16;57.76;102421.41;4989240;28;20092;-73
2022/03/21 07:30:42;;;;;;;16.20;12.95;;;;;;;8.30;57.12;102423.34;4986374;28;20341;-73
2022/03/21 07:33:08;;;;;;;14.35;12.85;;;;;;;8.43;56.68;102419.97;4991179;28;20090;-73
2022/03/21 07:35:33;;;;;;;17.33;13.40;;;;;;;8.53;54.29;102430.94;4971441;28;20010;-71
2022/03/21 07:37:59;;;;;;;18.13;13.30;;;;;;;8.66;53.92;102427.59;4988755;28;20026;-72
2022/03/21 07:40:25;;;;;;;13.82;11.95;;;;;;;8.77;54.15;102433.16;4999890;28;20005;-73
2022/03/21 07:42:50;;;;;;;14.75;12.73;;;;;;;8.92;52.71;102427.03;5010003;28;20013;-73
2022/03/21 07:48:00;;;;;;;;;;;;;;;9.14;50.04;102427.63;4974874;28;20014;-73
2022/03/21 07:50:25;;;;;;;14.33;12.23;;;;;;;9.27;50.06;102424.22;4973953;28;20372;-72
2022/03/21 07:52:51;;;;;;;14.20;12.70;;;;;;;9.40;50.10;102439.38;4957030;28;20021;-72
2022/03/21 07:55:17;;;;;;;15.23;12.98;;;;;;;9.48;48.38;102420.47;4949890;28;20074;-73
2022/03/21 07:57:42;;;;;;;18.50;12.90;;;;;;;9.68;49.35;102436.00;4986774;28;20854;-72
2022/03/21 08:00:11;;;;;;;15.60;13.23;;;;;;;9.79;47.91;102432.75;4994011;28;20359;-72
2022/03/21 08:02:37;;;;;;;14.25;12.63;;;;;;;9.91;45.81;102437.31;4977215;28;20006;-73
2022/03/21 08:05:04;;;;;;;15.70;12.50;;;;;;;10.02;46.39;102441.97;4994688;28;20112;-72
2022/03/21 08:07:29;;;;;;;15.00;13.27;;;;;;;10.16;46.33;102446.44;4992995;28;20024;-73
2022/03/21 08:09:55;;;;;;;15.30;12.75;;;;;;;10.18;45.05;102446.34;4991994;28;20014;-73
2022/03/21 08:12:20;;;;;;;14.23;12.43;;;;;;;10.25;44.32;102440.59;4967273;28;20872;-71
2022/03/21 08:14:47;;;;;;;15.63;12.98;;;;;;;10.35;44.25;102442.69;4971601;28;20015;-73
2022/03/21 08:17:13;;;;;;;14.68;12.75;;;;;;;10.36;44.66;102442.59;4971461;28;20143;-73
2022/03/21 08:19:38;;;;;;;16.35;12.85;;;;;;;10.50;44.60;102443.56;4971946;28;20198;-72
2022/03/21 08:22:07;;;;;;;14.70;12.68;;;;;;;10.67;43.38;102445.16;4970558;28;20014;-73
2022/03/21 08:24:35;;;;;;;15.80;12.93;;;;;;;10.77;44.08;102441.00;4959488;28;20037;-73
2022/03/21 08:27:00;;;;;;;16.55;12.38;;;;;;;10.90;43.78;102436.63;4966385;28;20748;-73
2022/03/21 08:29:26;;;;;;;16.55;12.30;;;;;;;10.93;43.22;102447.03;4976190;28;20013;-72
2022/03/21 08:31:51;;;;;;;13.73;12.25;;;;;;;11.12;42.74;102441.41;4970076;28;20435;-73
2022/03/21 08:34:16;;;;;;;16.05;12.82;;;;;;;11.28;42.59;102451.88;4957976;28;20323;-73
2022/03/21 08:36:42;;;;;;;17.95;12.77;;;;;;;11.37;42.51;102449.59;4969480;28;20011;-73
2022/03/21 08:39:10;;;;;;;15.98;13.20;;;;;;;11.48;42.92;102455.03;4956312;28;20014;-73
2022/03/21 08:41:35;;;;;;;14.60;11.90;;;;;;;11.61;42.16;102447.97;4950858;28;20350;-73
2022/03/21 08:44:01;;;;;;;18.48;12.75;;;;;;;11.75;42.63;102451.50;4962681;28;20099;-72
2022/03/21 08:46:26;;;;;;;13.52;12.20;;;;;;;11.80;40.84;102447.59;4970067;28;20328;-73
2022/03/21 08:51:37;;;;;;;14.32;12.38;;;;;;;12.12;41.04;102447.22;4971563;28;20797;-73
2022/03/21 08:54:03;;;;;;;16.00;12.40;;;;;;;12.39;41.04;102456.91;4971178;28;20017;-71
2022/03/21 08:56:28;;;;;;;15.90;11.85;;;;;;;12.62;41.69;102444.69;4966946;28;20018;-73
2022/03/21 08:58:55;;;;;;;13.15;11.85;;;;;;;12.78;41.18;102438.28;4972822;28;20010;-71
2022/03/21 09:01:21;;;;;;;14.82;12.88;;;;;;;12.89;39.71;102441.03;4935880;28;20015;-73
2022/03/21 09:03:46;;;;;;;18.67;12.35;;;;;;;12.91;39.37;102441.75;4956049;28;20034;-72
2022/03/21 09:06:12;;;;;;;14.68;12.18;;;;;;;13.13;39.59;102438.41;4958986;28;20940;-72
2022/03/21 09:08:37;;;;;;;14.55;12.00;;;;;;;13.28;39.12;102430.25;4957194;28;20006;-74
2022/03/21 09:11:04;;;;;;;13.52;11.82;;;;;;;13.73;39.23;102436.66;4962158;28;20520;-72
2022/03/21 09:13:30;;;;;;;14.77;12.88;;;;;;;13.93;38.81;102442.25;4957431;28;20467;-72
2022/03/21 09:15:55;;;;;;;13.52;12.02;;;;;;;14.00;38.08;102435.53;4994918;28;20092;-73
2022/03/21 09:18:21;;;;;;;15.35;12.60;;;;;;;14.36;38.30;102443.44;4961972;28;20114;-72
2022/03/21 09:20:46;;;;;;;14.38;12.05;;;;;;;14.76;36.66;102442.97;4973871;28;20022;-73
2022/03/21 09:23:11;;;;;;;13.55;12.15;;;;;;;14.40;37.11;102436.91;4961613;28;20794;-73
2022/03/21 09:25:37;;;;;;;14.05;12.48;;;;;;;14.85;37.27;102438.72;4973189;28;20394;-73
2022/03/21 09:28:02;;;;;;;15.95;12.13;;;;;;;15.00;38.38;102432.16;4974491;28;20006;-73
2022/03/21 09:30:28;;;;;;;15.63;11.85;;;;;;;15.39;36.68;102429.88;4975532;28;20580;-70
2022/03/21 09:32:53;;;;;;;13.60;12.20;;;;;;;15.57;35.22;102434.66;4975017;28;20517;-71
2022/03/21 09:35:19;;;;;;;13.50;12.10;;;;;;;16.12;36.61;102443.34;4977422;28;20084;-72
2022/03/21 09:37:44;;;;;;;13.65;12.25;;;;;;;16.14;33.75;102437.88;4961980;28;20021;-73
2022/03/21 09:40:10;;;;;;;13.55;12.13;;;;;;;16.28;34.03;102434.03;4963567;28;20120;-73
2022/03/21 09:42:36;;;;;;;13.52;12.10;;;;;;;16.57;34.03;102435.97;4960569;28;20030;-71
2022/03/21 09:45:02;;;;;;;13.38;12.07;;;;;;;17.09;33.04;102436.72;4977730;28;20037;-73
2022/03/21 09:50:13;;;;;;;;;;;;;;;17.04;33.35;102428.25;4964769;28;20121;-72
2022/03/21 09:52:38;;;;;;;12.68;11.38;;;;;;;17.16;32.90;102424.47;4979207;28;20586;-72
2022/03/21 09:55:05;;;;;;;16.38;12.13;;;;;;;17.53;34.26;102433.66;4964796;28;20110;-74
2022/03/21 09:57:31;;;;;;;13.27;11.93;;;;;;;17.51;32.47;102427.59;4964753;28;20145;-73
2022/03/21 09:59:59;;;;;;;13.20;11.90;;;;;;;17.80;32.70;102427.56;4946807;28;20007;-71
2022/03/21 10:02:25;;;;;;;14.02;12.13;;;;;;;18.19;31.56;102424.00;4964676;28;20100;-71
2022/03/21 10:04:51;;;;;;;16.73;13.85;;;;;;;18.84;31.35;102415.94;4949759;28;20061;-73
2022/03/21 10:07:26;;;;;;;12.80;11.50;;;;;;;18.87;30.89;102421.03;4940802;28;20014;-72
2022/03/21 10:10:08;;;;;;;12.65;11.35;;;;;;;18.95;30.35;102417.59;4963121;28;20006;-71
2022/03/21 10:12:34;;;;;;;14.52;11.68;;;;;;;19.23;29.81;102420.22;4973333;28;20006;-71
2022/03/21 10:15:00;;;;;;;12.18;11.00;;;;;;;19.07;30.17;102418.22;4990869;28;20075;-72
2022/03/21 10:17:25;;;;;;;12.57;11.30;;;;;;;19.18;30.49;102412.63;5012469;28;20022;-72
2022/03/21 10:19:52;;;;;;;12.73;11.10;;;;;;;19.55;29.43;102424.19;4978313;28;20424;-73
2022/03/21 10:22:33;;;;;;;12.63;11.32;;;;;;;19.71;29.31;102418.09;4962835;28;20015;-73
2022/03/21 10:25:06;;;;;;;12.60;11.40;;;;;;;19.64;29.40;102419.72;4997813;28;20915;-73
2022/03/21 10:27:36;;;;;;;12.15;10.85;;;;;;;19.67;28.86;102416.72;4986382;28;20010;-72
2022/03/21 10:30:26;;;;;;;12.98;11.57;;;;;;;19.99;28.47;102408.06;5006216;28;21503;-73
2022/03/21 10:32:53;;;;;;;13.65;10.98;;;;;;;19.85;28.46;102408.66;4995478;28;20022;-73
2022/03/21 10:35:21;;;;;;;11.45;10.30;;;;;;;20.45;28.38;102405.13;5008478;28;20071;-74
2022/03/21 10:37:51;;;;;;;13.32;10.77;;;;;;;20.90;28.99;102417.44;4993938;28;20041;-71
2022/03/21 10:40:30;;;;;;;11.18;10.07;;;;;;;20.11;28.81;102410.50;4983287;28;20002;-71
2022/03/21 10:43:04;;;;;;;12.38;10.57;;;;;;;20.31;29.78;102409.28;5018415;28;20142;-72
2022/03/21 10:45:42;;;;;;;10.75;9.68;;;;;;;20.98;29.72;102413.91;4990489;28;20581;-73
2022/03/21 10:48:12;;;;;;;16.58;10.27;;;;;;;21.09;28.04;102410.06;4996950;28;20045;-73
2022/03/21 10:50:40;;;;;;;13.13;10.20;;;;;;;21.60;28.55;102405.41;5018680;28;20041;-73
2022/03/21 10:53:15;;;;;;;10.88;9.77;;;;;;;22.13;28.00;102404.97;5029569;28;20069;-74
2022/03/21 10:55:57;;;;;;;10.65;9.63;;;;;;;21.81;27.19;102398.63;4985350;28;20017;-72
2022/03/21 10:58:42;;;;;;;11.00;9.90;;;;;;;22.08;26.94;102401.94;4995429;28;20025;-72
2022/03/21 11:01:15;;;;;;;12.38;9.93;;;;;;;22.08;28.07;102396.56;4977862;28;20014;-71
2022/03/21 11:03:41;;;;;;;12.17;9.63;;;;;;;22.35;26.41;102397.16;4978702;28;20168;-72
2022/03/21 11:06:10;;;;;;;10.02;9.10;;;;;;;22.13;26.59;102394.19;4998103;28;20380;-72
2022/03/21 11:08:36;;;;;;;13.15;9.10;;;;;;;22.28;26.43;102395.16;5002711;28;20493;-73
2022/03/21 11:11:02;;;;;;;9.80;8.90;;;;;;;22.59;26.55;102388.13;4986380;28;20014;-71
2022/03/21 11:13:28;;;;;;;9.73;8.88;;;;;;;22.75;26.70;102390.75;4946997;28;20092;-72
2022/03/21 11:15:53;;;;;;;9.65;8.75;;;;;;;23.56;25.38;102390.31;4980273;28;20152;-72
2022/03/21 11:18:20;;;;;;;10.07;9.18;;;;;;;23.91;25.41;102381.75;4983027;28;20053;-72
2022/03/21 11:20:45;;;;;;;9.52;8.52;;;;;;;24.39;24.79;102392.19;4985191;28;20678;-72
2022/03/21 11:23:11;;;;;;;9.52;8.57;;;;;;;23.92;25.66;102391.56;4981405;28;20024;-72
2022/03/21 11:25:39;;;;;;;10.60;8.55;;;;;;;23.35;25.56;102387.50;4978596;28;20032;-75
2022/03/21 11:28:15;;;;;;;9.02;8.13;;;;;;;23.08;26.63;102385.13;4977634;28;20242;-73
2022/03/21 11:30:53;;;;;;;8.73;7.82;;;;;;;23.61;25.56;102381.69;4993663;28;20024;-72
2022/03/21 11:33:47;;;;;;;9.05;7.32;;;;;;;24.08;25.87;102383.22;4979699;28;20045;-72
2022/03/21 11:36:13;;;;;;;7.85;7.13;;;;;;;24.89;25.04;102374.25;4959140;28;20010;-73